Aviation Digital Data Service (ADDS)

Output produced by METARs form (0605 UTC 30 July 2015)
found at http://www.aviationweather.gov/adds/metars/
 
KPIA 300523Z 3006/3106 28004KT P6SM SKC 
     FM301700 28010G18KT P6SM FEW080 
     FM310100 27005KT P6SM SKC